sensor_id;sensor_type;location;lat;lon;timestamp;temperature;humidity
2042;DHT22;1026;51.460;7.252;2023-06-24T00:00:46;23.10;72.90
2042;DHT22;1026;51.460;7.252;2023-06-24T00:03:11;23.10;73.00
2042;DHT22;1026;51.460;7.252;2023-06-24T00:05:42;23.10;73.00
2042;DHT22;1026;51.460;7.252;2023-06-24T00:08:08;23.00;73.00
2042;DHT22;1026;51.460;7.252;2023-06-24T00:10:34;23.00;73.10
2042;DHT22;1026;51.460;7.252;2023-06-24T00:13:00;23.00;73.20
2042;DHT22;1026;51.460;7.252;2023-06-24T00:15:35;23.00;73.30
2042;DHT22;1026;51.460;7.252;2023-06-24T00:18:08;23.00;73.30
2042;DHT22;1026;51.460;7.252;2023-06-24T00:20:33;22.90;73.40
2042;DHT22;1026;51.460;7.252;2023-06-24T00:22:59;22.90;73.40
2042;DHT22;1026;51.460;7.252;2023-06-24T00:25:25;22.90;73.50
2042;DHT22;1026;51.460;7.252;2023-06-24T00:27:50;22.90;73.60
2042;DHT22;1026;51.460;7.252;2023-06-24T00:30:16;22.80;73.50
2042;DHT22;1026;51.460;7.252;2023-06-24T00:32:42;22.80;73.50
2042;DHT22;1026;51.460;7.252;2023-06-24T00:35:08;22.70;73.60
2042;DHT22;1026;51.460;7.252;2023-06-24T00:37:33;22.80;73.70
2042;DHT22;1026;51.460;7.252;2023-06-24T00:39:59;22.70;73.60
2042;DHT22;1026;51.460;7.252;2023-06-24T00:42:25;22.70;73.70
2042;DHT22;1026;51.460;7.252;2023-06-24T00:44:50;22.70;73.70
2042;DHT22;1026;51.460;7.252;2023-06-24T00:47:16;22.70;73.80
2042;DHT22;1026;51.460;7.252;2023-06-24T00:49:42;22.70;73.80
2042;DHT22;1026;51.460;7.252;2023-06-24T00:52:11;22.60;73.80
2042;DHT22;1026;51.460;7.252;2023-06-24T00:54:42;22.60;73.80
2042;DHT22;1026;51.460;7.252;2023-06-24T00:57:08;22.60;73.80
2042;DHT22;1026;51.460;7.252;2023-06-24T00:59:34;22.50;73.90
2042;DHT22;1026;51.460;7.252;2023-06-24T01:02:01;22.50;73.90
2042;DHT22;1026;51.460;7.252;2023-06-24T01:04:27;22.50;74.00
2042;DHT22;1026;51.460;7.252;2023-06-24T01:06:53;22.50;74.00
2042;DHT22;1026;51.460;7.252;2023-06-24T01:09:20;22.50;74.10
2042;DHT22;1026;51.460;7.252;2023-06-24T01:11:46;22.40;74.10
2042;DHT22;1026;51.460;7.252;2023-06-24T01:14:12;22.40;74.20
2042;DHT22;1026;51.460;7.252;2023-06-24T01:16:59;22.40;74.30
2042;DHT22;1026;51.460;7.252;2023-06-24T01:22:30;22.30;74.30
2042;DHT22;1026;51.460;7.252;2023-06-24T01:25:10;22.30;74.80
2042;DHT22;1026;51.460;7.252;2023-06-24T01:28:04;22.30;74.50
2042;DHT22;1026;51.460;7.252;2023-06-24T01:30:38;22.20;74.50
2042;DHT22;1026;51.460;7.252;2023-06-24T01:33:12;22.20;74.60
2042;DHT22;1026;51.460;7.252;2023-06-24T01:35:40;22.20;74.70
2042;DHT22;1026;51.460;7.252;2023-06-24T01:38:15;22.20;74.70
2042;DHT22;1026;51.460;7.252;2023-06-24T01:41:04;22.10;74.70
2042;DHT22;1026;51.460;7.252;2023-06-24T01:43:32;22.10;74.70
2042;DHT22;1026;51.460;7.252;2023-06-24T01:46:04;22.10;74.90
2042;DHT22;1026;51.460;7.252;2023-06-24T01:48:35;22.10;74.90
2042;DHT22;1026;51.460;7.252;2023-06-24T01:51:08;22.00;74.90
2042;DHT22;1026;51.460;7.252;2023-06-24T01:53:37;22.00;74.90
2042;DHT22;1026;51.460;7.252;2023-06-24T01:56:06;21.90;74.90
2042;DHT22;1026;51.460;7.252;2023-06-24T01:58:34;21.90;74.90
2042;DHT22;1026;51.460;7.252;2023-06-24T02:01:01;21.90;75.00
2042;DHT22;1026;51.460;7.252;2023-06-24T02:03:28;21.90;75.00
2042;DHT22;1026;51.460;7.252;2023-06-24T02:05:55;21.90;75.10
2042;DHT22;1026;51.460;7.252;2023-06-24T02:08:23;21.80;75.10
2042;DHT22;1026;51.460;7.252;2023-06-24T02:10:51;21.80;75.10
2042;DHT22;1026;51.460;7.252;2023-06-24T02:13:17;21.80;75.20
2042;DHT22;1026;51.460;7.252;2023-06-24T02:15:45;21.80;75.30
2042;DHT22;1026;51.460;7.252;2023-06-24T02:18:13;21.80;75.30
2042;DHT22;1026;51.460;7.252;2023-06-24T02:20:41;21.80;75.40
2042;DHT22;1026;51.460;7.252;2023-06-24T02:23:19;21.70;75.40
2042;DHT22;1026;51.460;7.252;2023-06-24T02:25:47;21.70;75.40
2042;DHT22;1026;51.460;7.252;2023-06-24T02:28:14;21.70;75.50
2042;DHT22;1026;51.460;7.252;2023-06-24T02:30:41;21.70;75.50
2042;DHT22;1026;51.460;7.252;2023-06-24T02:33:07;21.60;75.50
2042;DHT22;1026;51.460;7.252;2023-06-24T02:35:34;21.60;75.50
2042;DHT22;1026;51.460;7.252;2023-06-24T02:38:00;21.60;75.60
2042;DHT22;1026;51.460;7.252;2023-06-24T02:40:26;21.60;75.70
2042;DHT22;1026;51.460;7.252;2023-06-24T02:42:52;21.50;75.50
2042;DHT22;1026;51.460;7.252;2023-06-24T02:45:18;21.60;75.70
2042;DHT22;1026;51.460;7.252;2023-06-24T02:47:45;21.50;75.70
2042;DHT22;1026;51.460;7.252;2023-06-24T02:50:12;21.50;75.80
2042;DHT22;1026;51.460;7.252;2023-06-24T02:52:38;21.50;75.80
2042;DHT22;1026;51.460;7.252;2023-06-24T02:55:05;21.50;75.80
2042;DHT22;1026;51.460;7.252;2023-06-24T02:57:33;21.40;75.80
2042;DHT22;1026;51.460;7.252;2023-06-24T03:00:02;21.40;75.90
2042;DHT22;1026;51.460;7.252;2023-06-24T03:02:31;21.40;75.90
2042;DHT22;1026;51.460;7.252;2023-06-24T03:04:58;21.40;76.00
2042;DHT22;1026;51.460;7.252;2023-06-24T03:07:25;21.30;75.90
2042;DHT22;1026;51.460;7.252;2023-06-24T03:09:51;21.30;76.00
2042;DHT22;1026;51.460;7.252;2023-06-24T03:12:22;21.30;76.00
2042;DHT22;1026;51.460;7.252;2023-06-24T03:14:47;21.30;76.00
2042;DHT22;1026;51.460;7.252;2023-06-24T03:17:13;21.30;76.10
2042;DHT22;1026;51.460;7.252;2023-06-24T03:19:48;21.30;76.20
2042;DHT22;1026;51.460;7.252;2023-06-24T03:22:14;21.20;76.10
2042;DHT22;1026;51.460;7.252;2023-06-24T03:24:39;21.20;76.20
2042;DHT22;1026;51.460;7.252;2023-06-24T03:27:05;21.20;76.10
2042;DHT22;1026;51.460;7.252;2023-06-24T03:29:38;21.20;76.20
2042;DHT22;1026;51.460;7.252;2023-06-24T03:32:04;21.20;76.30
2042;DHT22;1026;51.460;7.252;2023-06-24T03:34:29;21.10;76.20
2042;DHT22;1026;51.460;7.252;2023-06-24T03:36:55;21.10;76.20
2042;DHT22;1026;51.460;7.252;2023-06-24T03:39:21;21.10;76.30
2042;DHT22;1026;51.460;7.252;2023-06-24T03:41:47;21.10;76.30
2042;DHT22;1026;51.460;7.252;2023-06-24T03:44:12;21.10;76.30
2042;DHT22;1026;51.460;7.252;2023-06-24T03:46:38;21.10;76.40
2042;DHT22;1026;51.460;7.252;2023-06-24T03:49:04;21.00;76.30
2042;DHT22;1026;51.460;7.252;2023-06-24T03:51:30;21.00;76.30
2042;DHT22;1026;51.460;7.252;2023-06-24T03:53:59;21.00;76.30
2042;DHT22;1026;51.460;7.252;2023-06-24T03:56:25;21.00;76.40
2042;DHT22;1026;51.460;7.252;2023-06-24T03:58:53;21.00;76.40
2042;DHT22;1026;51.460;7.252;2023-06-24T04:01:19;20.90;76.30
2042;DHT22;1026;51.460;7.252;2023-06-24T04:03:51;21.00;76.40
2042;DHT22;1026;51.460;7.252;2023-06-24T04:06:19;20.90;76.30
2042;DHT22;1026;51.460;7.252;2023-06-24T04:08:45;20.90;76.40
2042;DHT22;1026;51.460;7.252;2023-06-24T04:11:14;20.90;76.40
2042;DHT22;1026;51.460;7.252;2023-06-24T04:13:39;20.90;76.50
2042;DHT22;1026;51.460;7.252;2023-06-24T04:16:11;20.90;76.50
2042;DHT22;1026;51.460;7.252;2023-06-24T04:18:37;20.90;77.30
2042;DHT22;1026;51.460;7.252;2023-06-24T04:21:06;20.90;76.60
2042;DHT22;1026;51.460;7.252;2023-06-24T04:23:33;20.90;76.60
2042;DHT22;1026;51.460;7.252;2023-06-24T04:25:59;20.90;76.60
2042;DHT22;1026;51.460;7.252;2023-06-24T04:28:29;20.80;76.60
2042;DHT22;1026;51.460;7.252;2023-06-24T04:30:56;20.90;76.70
2042;DHT22;1026;51.460;7.252;2023-06-24T04:33:22;20.80;76.60
2042;DHT22;1026;51.460;7.252;2023-06-24T04:35:48;20.80;76.60
2042;DHT22;1026;51.460;7.252;2023-06-24T04:38:14;20.80;76.70
2042;DHT22;1026;51.460;7.252;2023-06-24T04:41:04;20.80;76.70
2042;DHT22;1026;51.460;7.252;2023-06-24T04:46:56;20.80;76.70
2042;DHT22;1026;51.460;7.252;2023-06-24T04:49:22;20.80;76.80
2042;DHT22;1026;51.460;7.252;2023-06-24T04:52:00;20.80;76.80
2042;DHT22;1026;51.460;7.252;2023-06-24T04:54:26;20.80;76.90
2042;DHT22;1026;51.460;7.252;2023-06-24T04:57:00;20.80;76.80
2042;DHT22;1026;51.460;7.252;2023-06-24T04:59:26;20.80;76.90
2042;DHT22;1026;51.460;7.252;2023-06-24T05:01:52;20.70;76.80
2042;DHT22;1026;51.460;7.252;2023-06-24T05:04:17;20.70;76.80
2042;DHT22;1026;51.460;7.252;2023-06-24T05:06:43;20.70;76.80
2042;DHT22;1026;51.460;7.252;2023-06-24T05:09:09;20.70;76.90
2042;DHT22;1026;51.460;7.252;2023-06-24T05:11:39;20.70;76.80
2042;DHT22;1026;51.460;7.252;2023-06-24T05:14:05;20.70;76.80
2042;DHT22;1026;51.460;7.252;2023-06-24T05:16:30;20.70;76.90
2042;DHT22;1026;51.460;7.252;2023-06-24T05:18:56;20.70;76.90
2042;DHT22;1026;51.460;7.252;2023-06-24T05:21:21;20.70;76.90
2042;DHT22;1026;51.460;7.252;2023-06-24T05:23:47;20.70;77.00
2042;DHT22;1026;51.460;7.252;2023-06-24T05:26:13;20.70;76.90
2042;DHT22;1026;51.460;7.252;2023-06-24T05:28:39;20.70;77.00
2042;DHT22;1026;51.460;7.252;2023-06-24T05:31:04;20.70;77.00
2042;DHT22;1026;51.460;7.252;2023-06-24T05:33:30;20.70;77.00
2042;DHT22;1026;51.460;7.252;2023-06-24T05:35:56;20.70;76.90
2042;DHT22;1026;51.460;7.252;2023-06-24T05:38:21;20.70;77.00
2042;DHT22;1026;51.460;7.252;2023-06-24T05:40:47;20.70;76.90
2042;DHT22;1026;51.460;7.252;2023-06-24T05:43:13;20.70;77.00
2042;DHT22;1026;51.460;7.252;2023-06-24T05:45:39;20.70;77.00
2042;DHT22;1026;51.460;7.252;2023-06-24T05:48:04;20.70;77.00
2042;DHT22;1026;51.460;7.252;2023-06-24T05:50:30;20.70;76.90
2042;DHT22;1026;51.460;7.252;2023-06-24T05:52:57;20.70;76.90
2042;DHT22;1026;51.460;7.252;2023-06-24T05:55:42;20.70;76.90
2042;DHT22;1026;51.460;7.252;2023-06-24T05:58:07;20.70;76.90
2042;DHT22;1026;51.460;7.252;2023-06-24T06:00:33;20.70;76.90
2042;DHT22;1026;51.460;7.252;2023-06-24T06:02:59;20.70;76.90
2042;DHT22;1026;51.460;7.252;2023-06-24T06:08:25;20.70;76.90
2042;DHT22;1026;51.460;7.252;2023-06-24T06:10:51;20.70;76.80
2042;DHT22;1026;51.460;7.252;2023-06-24T06:13:17;20.70;76.80
2042;DHT22;1026;51.460;7.252;2023-06-24T06:15:42;20.70;76.80
2042;DHT22;1026;51.460;7.252;2023-06-24T06:18:08;20.70;76.80
2042;DHT22;1026;51.460;7.252;2023-06-24T06:20:34;20.70;76.80
2042;DHT22;1026;51.460;7.252;2023-06-24T06:22:59;20.70;76.80
2042;DHT22;1026;51.460;7.252;2023-06-24T06:25:25;20.70;76.80
2042;DHT22;1026;51.460;7.252;2023-06-24T06:27:51;20.70;76.80
2042;DHT22;1026;51.460;7.252;2023-06-24T06:30:17;20.70;76.80
2042;DHT22;1026;51.460;7.252;2023-06-24T06:32:43;20.70;76.80
2042;DHT22;1026;51.460;7.252;2023-06-24T06:35:08;20.70;76.80
2042;DHT22;1026;51.460;7.252;2023-06-24T06:37:34;20.80;76.80
2042;DHT22;1026;51.460;7.252;2023-06-24T06:40:00;20.70;76.60
2042;DHT22;1026;51.460;7.252;2023-06-24T06:42:25;20.80;76.70
2042;DHT22;1026;51.460;7.252;2023-06-24T06:44:51;20.80;76.60
2042;DHT22;1026;51.460;7.252;2023-06-24T06:47:17;20.80;76.60
2042;DHT22;1026;51.460;7.252;2023-06-24T06:49:43;20.80;76.60
2042;DHT22;1026;51.460;7.252;2023-06-24T06:52:08;20.80;76.60
2042;DHT22;1026;51.460;7.252;2023-06-24T06:54:34;20.80;76.60
2042;DHT22;1026;51.460;7.252;2023-06-24T06:57:02;20.80;76.60
2042;DHT22;1026;51.460;7.252;2023-06-24T06:59:27;20.80;76.60
2042;DHT22;1026;51.460;7.252;2023-06-24T07:01:53;20.80;76.60
2042;DHT22;1026;51.460;7.252;2023-06-24T07:04:19;20.80;76.50
2042;DHT22;1026;51.460;7.252;2023-06-24T07:06:44;20.90;76.50
2042;DHT22;1026;51.460;7.252;2023-06-24T07:09:10;20.90;76.80
2042;DHT22;1026;51.460;7.252;2023-06-24T07:11:36;20.90;76.60
2042;DHT22;1026;51.460;7.252;2023-06-24T07:14:02;20.90;76.60
2042;DHT22;1026;51.460;7.252;2023-06-24T07:16:27;20.90;76.60
2042;DHT22;1026;51.460;7.252;2023-06-24T07:18:53;20.90;76.80
2042;DHT22;1026;51.460;7.252;2023-06-24T07:21:18;20.90;76.50
2042;DHT22;1026;51.460;7.252;2023-06-24T07:23:44;20.90;76.80
2042;DHT22;1026;51.460;7.252;2023-06-24T07:26:10;20.90;76.50
2042;DHT22;1026;51.460;7.252;2023-06-24T07:28:35;20.90;76.80
2042;DHT22;1026;51.460;7.252;2023-06-24T07:31:01;20.90;77.00
2042;DHT22;1026;51.460;7.252;2023-06-24T07:33:27;21.00;76.70
2042;DHT22;1026;51.460;7.252;2023-06-24T07:35:55;21.00;77.10
2042;DHT22;1026;51.460;7.252;2023-06-24T07:38:29;21.00;76.80
2042;DHT22;1026;51.460;7.252;2023-06-24T07:40:55;21.00;77.00
2042;DHT22;1026;51.460;7.252;2023-06-24T07:43:21;21.10;77.30
2042;DHT22;1026;51.460;7.252;2023-06-24T07:45:46;21.10;76.90
2042;DHT22;1026;51.460;7.252;2023-06-24T07:48:12;21.10;76.90
2042;DHT22;1026;51.460;7.252;2023-06-24T07:50:38;21.10;77.30
2042;DHT22;1026;51.460;7.252;2023-06-24T07:53:04;21.10;76.80
2042;DHT22;1026;51.460;7.252;2023-06-24T07:55:30;21.10;76.50
2042;DHT22;1026;51.460;7.252;2023-06-24T07:57:55;21.20;76.90
2042;DHT22;1026;51.460;7.252;2023-06-24T08:00:22;21.20;76.70
2042;DHT22;1026;51.460;7.252;2023-06-24T08:02:47;21.20;77.10
2042;DHT22;1026;51.460;7.252;2023-06-24T08:05:13;21.20;77.00
2042;DHT22;1026;51.460;7.252;2023-06-24T08:07:39;21.50;83.80
2042;DHT22;1026;51.460;7.252;2023-06-24T08:10:05;21.60;84.70
2042;DHT22;1026;51.460;7.252;2023-06-24T08:12:31;21.80;84.70
2042;DHT22;1026;51.460;7.252;2023-06-24T08:14:56;21.90;85.20
2042;DHT22;1026;51.460;7.252;2023-06-24T08:17:22;22.00;84.90
2042;DHT22;1026;51.460;7.252;2023-06-24T08:19:48;22.10;83.60
2042;DHT22;1026;51.460;7.252;2023-06-24T08:22:14;22.10;83.70
2042;DHT22;1026;51.460;7.252;2023-06-24T08:24:40;22.20;84.10
2042;DHT22;1026;51.460;7.252;2023-06-24T08:27:06;22.20;84.30
2042;DHT22;1026;51.460;7.252;2023-06-24T08:29:47;22.30;84.40
2042;DHT22;1026;51.460;7.252;2023-06-24T08:32:12;22.30;84.60
2042;DHT22;1026;51.460;7.252;2023-06-24T08:34:38;22.40;84.00
2042;DHT22;1026;51.460;7.252;2023-06-24T08:37:04;22.40;83.10
2042;DHT22;1026;51.460;7.252;2023-06-24T08:39:29;22.30;83.20
2042;DHT22;1026;51.460;7.252;2023-06-24T08:41:55;22.30;83.10
2042;DHT22;1026;51.460;7.252;2023-06-24T08:44:20;22.30;83.50
2042;DHT22;1026;51.460;7.252;2023-06-24T08:46:47;22.30;83.30
2042;DHT22;1026;51.460;7.252;2023-06-24T08:51:41;22.20;83.50
2042;DHT22;1026;51.460;7.252;2023-06-24T08:54:10;22.10;83.30
2042;DHT22;1026;51.460;7.252;2023-06-24T08:56:37;22.10;83.10
2042;DHT22;1026;51.460;7.252;2023-06-24T08:59:06;22.10;83.00
2042;DHT22;1026;51.460;7.252;2023-06-24T09:01:32;22.10;83.00
2042;DHT22;1026;51.460;7.252;2023-06-24T09:03:57;22.10;83.00
2042;DHT22;1026;51.460;7.252;2023-06-24T09:06:23;22.20;82.90
2042;DHT22;1026;51.460;7.252;2023-06-24T09:08:53;22.20;83.10
2042;DHT22;1026;51.460;7.252;2023-06-24T09:11:26;22.20;83.10
2042;DHT22;1026;51.460;7.252;2023-06-24T09:14:00;22.20;83.10
2042;DHT22;1026;51.460;7.252;2023-06-24T09:16:26;22.30;82.90
2042;DHT22;1026;51.460;7.252;2023-06-24T09:18:53;22.30;82.80
2042;DHT22;1026;51.460;7.252;2023-06-24T09:21:27;22.40;81.40
2042;DHT22;1026;51.460;7.252;2023-06-24T09:23:56;22.60;79.80
2042;DHT22;1026;51.460;7.252;2023-06-24T09:26:35;22.90;78.10
2042;DHT22;1026;51.460;7.252;2023-06-24T09:29:04;23.10;78.30
2042;DHT22;1026;51.460;7.252;2023-06-24T09:31:29;23.00;77.70
2042;DHT22;1026;51.460;7.252;2023-06-24T09:34:01;23.10;77.00
2042;DHT22;1026;51.460;7.252;2023-06-24T09:36:27;23.10;76.20
2042;DHT22;1026;51.460;7.252;2023-06-24T09:39:05;23.10;76.70
2042;DHT22;1026;51.460;7.252;2023-06-24T09:41:53;23.30;76.10
2042;DHT22;1026;51.460;7.252;2023-06-24T09:44:19;23.20;75.30
2042;DHT22;1026;51.460;7.252;2023-06-24T09:46:45;23.30;75.30
2042;DHT22;1026;51.460;7.252;2023-06-24T09:49:11;23.40;78.10
2042;DHT22;1026;51.460;7.252;2023-06-24T09:51:40;23.40;76.10
2042;DHT22;1026;51.460;7.252;2023-06-24T09:54:06;23.50;76.30
2042;DHT22;1026;51.460;7.252;2023-06-24T09:56:35;23.40;77.10
2042;DHT22;1026;51.460;7.252;2023-06-24T09:59:04;23.50;76.00
2042;DHT22;1026;51.460;7.252;2023-06-24T10:01:33;23.60;73.90
2042;DHT22;1026;51.460;7.252;2023-06-24T10:04:04;23.60;74.70
2042;DHT22;1026;51.460;7.252;2023-06-24T10:06:30;23.70;74.60
2042;DHT22;1026;51.460;7.252;2023-06-24T10:08:56;23.80;75.20
2042;DHT22;1026;51.460;7.252;2023-06-24T10:11:22;24.00;74.60
2042;DHT22;1026;51.460;7.252;2023-06-24T10:13:47;23.90;74.90
2042;DHT22;1026;51.460;7.252;2023-06-24T10:16:13;24.00;74.40
2042;DHT22;1026;51.460;7.252;2023-06-24T10:18:41;23.90;73.10
2042;DHT22;1026;51.460;7.252;2023-06-24T10:21:08;24.00;74.00
2042;DHT22;1026;51.460;7.252;2023-06-24T10:23:51;23.90;71.90
2042;DHT22;1026;51.460;7.252;2023-06-24T10:26:28;23.80;72.90
2042;DHT22;1026;51.460;7.252;2023-06-24T10:29:09;24.00;73.70
2042;DHT22;1026;51.460;7.252;2023-06-24T10:31:51;23.90;72.40
2042;DHT22;1026;51.460;7.252;2023-06-24T10:34:22;23.90;72.00
2042;DHT22;1026;51.460;7.252;2023-06-24T10:37:04;24.10;71.90
2042;DHT22;1026;51.460;7.252;2023-06-24T10:39:40;24.00;71.90
2042;DHT22;1026;51.460;7.252;2023-06-24T10:45:15;23.80;72.90
2042;DHT22;1026;51.460;7.252;2023-06-24T10:47:46;23.80;73.40
2042;DHT22;1026;51.460;7.252;2023-06-24T10:50:14;23.80;73.90
2042;DHT22;1026;51.460;7.252;2023-06-24T10:52:42;23.80;73.90
2042;DHT22;1026;51.460;7.252;2023-06-24T10:55:08;23.80;73.90
2042;DHT22;1026;51.460;7.252;2023-06-24T10:57:34;23.80;74.10
2042;DHT22;1026;51.460;7.252;2023-06-24T11:00:01;23.90;74.00
2042;DHT22;1026;51.460;7.252;2023-06-24T11:02:27;23.90;73.30
2042;DHT22;1026;51.460;7.252;2023-06-24T11:04:57;23.90;73.00
2042;DHT22;1026;51.460;7.252;2023-06-24T11:07:24;24.00;73.30
2042;DHT22;1026;51.460;7.252;2023-06-24T11:09:53;24.00;73.80
2042;DHT22;1026;51.460;7.252;2023-06-24T11:12:23;24.00;73.50
2042;DHT22;1026;51.460;7.252;2023-06-24T11:14:49;24.00;73.40
2042;DHT22;1026;51.460;7.252;2023-06-24T11:17:14;24.10;73.10
2042;DHT22;1026;51.460;7.252;2023-06-24T11:19:40;24.10;73.10
2042;DHT22;1026;51.460;7.252;2023-06-24T11:22:07;24.10;73.30
2042;DHT22;1026;51.460;7.252;2023-06-24T11:24:34;24.10;73.20
2042;DHT22;1026;51.460;7.252;2023-06-24T11:27:01;24.10;72.70
2042;DHT22;1026;51.460;7.252;2023-06-24T11:29:30;24.20;72.70
2042;DHT22;1026;51.460;7.252;2023-06-24T11:31:56;24.20;72.80
2042;DHT22;1026;51.460;7.252;2023-06-24T11:34:22;24.30;71.50
2042;DHT22;1026;51.460;7.252;2023-06-24T11:36:48;24.30;72.10
2042;DHT22;1026;51.460;7.252;2023-06-24T11:39:23;24.40;72.30
2042;DHT22;1026;51.460;7.252;2023-06-24T11:41:49;24.40;72.90
2042;DHT22;1026;51.460;7.252;2023-06-24T11:44:16;24.40;71.60
2042;DHT22;1026;51.460;7.252;2023-06-24T11:46:42;24.50;70.50
2042;DHT22;1026;51.460;7.252;2023-06-24T11:49:08;24.60;55.70
2042;DHT22;1026;51.460;7.252;2023-06-24T11:51:35;24.70;54.40
2042;DHT22;1026;51.460;7.252;2023-06-24T11:54:02;24.70;53.70
2042;DHT22;1026;51.460;7.252;2023-06-24T11:56:37;24.70;54.80
2042;DHT22;1026;51.460;7.252;2023-06-24T11:59:06;24.70;55.50
2042;DHT22;1026;51.460;7.252;2023-06-24T12:01:32;24.70;58.50
2042;DHT22;1026;51.460;7.252;2023-06-24T12:04:00;24.70;59.90
2042;DHT22;1026;51.460;7.252;2023-06-24T12:06:26;24.80;60.10
2042;DHT22;1026;51.460;7.252;2023-06-24T12:08:52;24.80;59.70
2042;DHT22;1026;51.460;7.252;2023-06-24T12:11:18;24.80;59.50
2042;DHT22;1026;51.460;7.252;2023-06-24T12:13:44;24.90;60.70
2042;DHT22;1026;51.460;7.252;2023-06-24T12:16:09;25.00;62.00
2042;DHT22;1026;51.460;7.252;2023-06-24T12:18:35;25.00;61.70
2042;DHT22;1026;51.460;7.252;2023-06-24T12:21:01;25.00;61.40
2042;DHT22;1026;51.460;7.252;2023-06-24T12:23:26;25.10;62.10
2042;DHT22;1026;51.460;7.252;2023-06-24T12:25:52;25.10;63.00
2042;DHT22;1026;51.460;7.252;2023-06-24T12:28:17;25.30;58.00
2042;DHT22;1026;51.460;7.252;2023-06-24T12:30:43;25.40;57.90
2042;DHT22;1026;51.460;7.252;2023-06-24T12:33:09;25.40;59.10
2042;DHT22;1026;51.460;7.252;2023-06-24T12:35:34;25.40;59.50
2042;DHT22;1026;51.460;7.252;2023-06-24T12:38:00;25.40;61.40
2042;DHT22;1026;51.460;7.252;2023-06-24T12:40:26;25.40;61.20
2042;DHT22;1026;51.460;7.252;2023-06-24T12:42:51;25.50;62.20
2042;DHT22;1026;51.460;7.252;2023-06-24T12:45:17;25.50;61.60
2042;DHT22;1026;51.460;7.252;2023-06-24T12:47:43;25.60;62.70
2042;DHT22;1026;51.460;7.252;2023-06-24T12:50:08;25.60;61.50
2042;DHT22;1026;51.460;7.252;2023-06-24T12:52:34;25.70;61.00
2042;DHT22;1026;51.460;7.252;2023-06-24T12:55:00;25.80;61.20
2042;DHT22;1026;51.460;7.252;2023-06-24T12:57:26;25.80;60.60
2042;DHT22;1026;51.460;7.252;2023-06-24T12:59:51;25.90;62.90
2042;DHT22;1026;51.460;7.252;2023-06-24T13:02:17;25.90;61.00
2042;DHT22;1026;51.460;7.252;2023-06-24T13:05:02;26.00;62.80
2042;DHT22;1026;51.460;7.252;2023-06-24T13:07:29;26.00;62.90
2042;DHT22;1026;51.460;7.252;2023-06-24T13:09:54;26.10;60.90
2042;DHT22;1026;51.460;7.252;2023-06-24T13:12:27;26.10;61.00
2042;DHT22;1026;51.460;7.252;2023-06-24T13:14:52;26.20;62.20
2042;DHT22;1026;51.460;7.252;2023-06-24T13:17:18;26.30;60.30
2042;DHT22;1026;51.460;7.252;2023-06-24T13:19:44;26.30;60.20
2042;DHT22;1026;51.460;7.252;2023-06-24T13:22:09;26.40;59.90
2042;DHT22;1026;51.460;7.252;2023-06-24T13:24:35;26.50;60.00
2042;DHT22;1026;51.460;7.252;2023-06-24T13:27:01;26.50;61.10
2042;DHT22;1026;51.460;7.252;2023-06-24T13:29:26;26.70;59.00
2042;DHT22;1026;51.460;7.252;2023-06-24T13:31:53;26.70;60.60
2042;DHT22;1026;51.460;7.252;2023-06-24T13:34:18;26.80;60.30
2042;DHT22;1026;51.460;7.252;2023-06-24T13:36:44;26.80;60.70
2042;DHT22;1026;51.460;7.252;2023-06-24T13:39:10;26.80;60.00
2042;DHT22;1026;51.460;7.252;2023-06-24T13:41:38;26.90;60.70
2042;DHT22;1026;51.460;7.252;2023-06-24T13:44:05;27.00;62.30
2042;DHT22;1026;51.460;7.252;2023-06-24T13:46:32;27.00;59.80
2042;DHT22;1026;51.460;7.252;2023-06-24T13:48:58;27.10;60.20
2042;DHT22;1026;51.460;7.252;2023-06-24T13:51:24;27.20;60.70
2042;DHT22;1026;51.460;7.252;2023-06-24T13:54:10;27.20;60.40
2042;DHT22;1026;51.460;7.252;2023-06-24T13:56:36;27.30;59.20
2042;DHT22;1026;51.460;7.252;2023-06-24T13:59:02;27.40;59.30
2042;DHT22;1026;51.460;7.252;2023-06-24T14:01:34;27.50;57.40
2042;DHT22;1026;51.460;7.252;2023-06-24T14:04:01;27.50;59.70
2042;DHT22;1026;51.460;7.252;2023-06-24T14:06:27;27.60;59.10
2042;DHT22;1026;51.460;7.252;2023-06-24T14:08:53;27.60;58.30
2042;DHT22;1026;51.460;7.252;2023-06-24T14:11:18;27.70;55.30
2042;DHT22;1026;51.460;7.252;2023-06-24T14:13:44;27.80;57.30
2042;DHT22;1026;51.460;7.252;2023-06-24T14:16:10;27.90;56.80
2042;DHT22;1026;51.460;7.252;2023-06-24T14:18:37;27.90;58.00
2042;DHT22;1026;51.460;7.252;2023-06-24T14:21:04;27.90;58.60
2042;DHT22;1026;51.460;7.252;2023-06-24T14:23:31;28.00;58.50
2042;DHT22;1026;51.460;7.252;2023-06-24T14:25:57;28.00;59.80
2042;DHT22;1026;51.460;7.252;2023-06-24T14:28:23;28.10;59.30
2042;DHT22;1026;51.460;7.252;2023-06-24T14:30:52;28.10;58.50
2042;DHT22;1026;51.460;7.252;2023-06-24T14:33:18;28.20;57.20
2042;DHT22;1026;51.460;7.252;2023-06-24T14:35:43;28.30;58.70
2042;DHT22;1026;51.460;7.252;2023-06-24T14:38:09;28.30;59.40
2042;DHT22;1026;51.460;7.252;2023-06-24T14:40:35;28.30;59.60
2042;DHT22;1026;51.460;7.252;2023-06-24T14:43:00;28.30;59.50
2042;DHT22;1026;51.460;7.252;2023-06-24T14:45:26;28.40;57.60
2042;DHT22;1026;51.460;7.252;2023-06-24T14:47:52;28.50;57.50
2042;DHT22;1026;51.460;7.252;2023-06-24T14:50:18;28.60;57.40
2042;DHT22;1026;51.460;7.252;2023-06-24T14:52:44;28.60;58.70
2042;DHT22;1026;51.460;7.252;2023-06-24T14:55:10;28.70;56.80
2042;DHT22;1026;51.460;7.252;2023-06-24T14:57:36;28.70;57.90
2042;DHT22;1026;51.460;7.252;2023-06-24T15:00:03;28.70;58.80
2042;DHT22;1026;51.460;7.252;2023-06-24T15:02:29;28.70;58.10
2042;DHT22;1026;51.460;7.252;2023-06-24T15:04:55;28.70;58.70
2042;DHT22;1026;51.460;7.252;2023-06-24T15:07:28;28.80;58.30
2042;DHT22;1026;51.460;7.252;2023-06-24T15:10:07;28.90;56.30
2042;DHT22;1026;51.460;7.252;2023-06-24T15:12:33;28.90;58.30
2042;DHT22;1026;51.460;7.252;2023-06-24T15:15:00;28.90;57.90
2042;DHT22;1026;51.460;7.252;2023-06-24T15:17:25;28.90;58.40
2042;DHT22;1026;51.460;7.252;2023-06-24T15:19:51;29.00;58.40
2042;DHT22;1026;51.460;7.252;2023-06-24T15:22:17;29.00;57.40
2042;DHT22;1026;51.460;7.252;2023-06-24T15:24:43;29.10;56.00
2042;DHT22;1026;51.460;7.252;2023-06-24T15:27:10;29.10;55.80
2042;DHT22;1026;51.460;7.252;2023-06-24T15:29:36;29.20;56.90
2042;DHT22;1026;51.460;7.252;2023-06-24T15:32:01;29.20;57.90
2042;DHT22;1026;51.460;7.252;2023-06-24T15:34:27;29.10;58.20
2042;DHT22;1026;51.460;7.252;2023-06-24T15:36:53;29.20;58.40
2042;DHT22;1026;51.460;7.252;2023-06-24T15:39:19;29.20;57.60
2042;DHT22;1026;51.460;7.252;2023-06-24T15:41:47;29.20;58.10
2042;DHT22;1026;51.460;7.252;2023-06-24T15:44:16;29.20;58.20
2042;DHT22;1026;51.460;7.252;2023-06-24T15:46:42;29.30;57.60
2042;DHT22;1026;51.460;7.252;2023-06-24T15:49:10;29.30;58.40
2042;DHT22;1026;51.460;7.252;2023-06-24T15:51:35;29.20;58.50
2042;DHT22;1026;51.460;7.252;2023-06-24T15:54:01;29.20;58.70
2042;DHT22;1026;51.460;7.252;2023-06-24T15:56:26;29.20;58.90
2042;DHT22;1026;51.460;7.252;2023-06-24T15:58:52;29.10;58.80
2042;DHT22;1026;51.460;7.252;2023-06-24T16:01:18;29.10;59.00
2042;DHT22;1026;51.460;7.252;2023-06-24T16:03:43;29.10;56.10
2042;DHT22;1026;51.460;7.252;2023-06-24T16:06:09;29.10;58.70
2042;DHT22;1026;51.460;7.252;2023-06-24T16:08:35;29.10;59.00
2042;DHT22;1026;51.460;7.252;2023-06-24T16:11:00;29.10;59.10
2042;DHT22;1026;51.460;7.252;2023-06-24T16:13:26;29.10;59.20
2042;DHT22;1026;51.460;7.252;2023-06-24T16:15:52;29.20;55.50
2042;DHT22;1026;51.460;7.252;2023-06-24T16:18:18;29.20;58.10